Impacts METAR Board INFO
IDs:

KDFW - Dallas-Ft Worth Intl, TX, US

Updated at: 1906 UTC 20 Jan 2018
Potential Impact None Slight Moderate High
Time20/07Z 20/08Z 20/09Z 20/10Z 20/11Z 20/12Z 20/13Z 20/14Z 20/15Z 20/16Z 20/17Z 20/18Z 20/19Z
VIS2 1.25 2.5 9 10 10 10 10 10 10 10 10 10
CIG5 3 6 12 14 17 17 17 16 16 -- 250 --
CoverOVCOVCOVCOVCOVCOVCBKNBKNBKNBKNSCTBKNFEW
FltCatIFRLIFRIFRMVFRMVFRMVFRMVFRMVFRMVFRMVFRVFRVFRVFR
WX-DZ BR-DZ BR-DZ BR--------------------
WDir180160190190190200190190180190180180180
WSpd10 7 12 18 17 19 16 15 14 19 19 17 20
WGst-- -- -- -- 24 26 -- -- -- -- -- 25 26
Raw hourly METARs
KDFW 200653Z 18010KT 2SM -DZ BR OVC005 12/11 A3001 RMK AO2 DZB09 SLP159 P0000 T01220106
KDFW 200753Z 16007KT 1 1/4SM -DZ BR OVC003 12/11 A3000 RMK AO2 SLP155 P0001 T01170106
KDFW 200853Z 19012KT 2 1/2SM -DZ BR BKN006 OVC013 13/12 A2998 RMK AO2 SLP150 P0000 60001 T01330117 58011
KDFW 200953Z 19018KT 9SM OVC012 14/12 A2996 RMK AO2 DZE16 SLP142 P0002 T01390117
KDFW 201053Z 19017G24KT 10SM OVC014 14/11 A2995 RMK AO2 PK WND 19029/1029 SLP138 T01390111
KDFW 201153Z 20019G26KT 10SM OVC017 14/11 A2996 RMK AO2 PK WND 20029/1055 SLP140 BINOVC 60003 70003 T01390106 10139 20117 55009
KDFW 201253Z 19016KT 10SM BKN017 BKN250 13/10 A2996 RMK AO2 SLP141 T01330100
KDFW 201353Z 19015KT 10SM BKN017 BKN250 13/11 A2997 RMK AO2 SLP146 T01330106
KDFW 201453Z 18014KT 10SM BKN016 BKN250 14/11 A2997 RMK AO2 SLP145 T01440111 52005
KDFW 201553Z 19019KT 10SM BKN016 BKN250 16/12 A2999 RMK AO2 SLP152 T01560117
KDFW 201653Z 18019KT 10SM SCT018 SCT250 18/11 A2998 RMK AO2 PK WND 18028/1614 SLP149 T01830111
KDFW 201753Z 18017G25KT 10SM FEW020 BKN250 20/11 A2995 RMK AO2 PK WND 19027/1719 SLP138 T02000111 10200 20128 58006
KDFW 201853Z 18020G26KT 10SM FEW020 FEW250 21/11 A2992 RMK AO2 PK WND 19027/1838 SLP126 T02060111